Weather observations for the past three days for
La Porte Municipal Airport
Imperial (Metric)
Date Time (cdt) Wind (mph) Vis. (mi.) Weather Sky Cond. Temperature (ºF) Relative Humidity Wind Chill (°F) Heat Index (°F) Pressure Precipitation (in)
Air Dwpt 6 hour altimeter (in) sea level (mb) 1 hr 3 hr 6 hr
Max. Min.
01 16:15 NW 7 10.00 Overcast SCT047 BKN070 OVC080 82.4 75.2 79% 89 29.93 0.0
01 15:55 NW 6 10.00 Overcast SCT035 BKN065 OVC080 82.4 75.2 79% 89 29.93 0.0
01 15:35 N 8 10.00 Partly Cloudy SCT033 SCT042 SCT049 84.2 73.4 70% 91 29.92 0.0
01 15:15 NW 13 10.00 Fair CLR 86 71.6 62% 92 29.92 0.0
01 14:55 NW 7 10.00 Fair CLR 84.2 75.2 74% 92 29.94 0.0
01 14:35 W 7 10.00 Partly Cloudy SCT036 SCT045 84.2 77 79% 94 29.95 0.0
01 14:15 W 8 10.00 Mostly Cloudy SCT029 BKN038 BKN045 82.4 77 84% 91 29.96 0.0
01 13:55 NW 6 10.00 Mostly Cloudy SCT039 BKN045 BKN050 84.2 73.4 70% 91 29.97 0.0
01 13:35 NW 6 10.00 Fair CLR 84.2 73.4 70% 91 29.97 0.0
01 13:15 NW 5 10.00 Fair CLR 84.2 73.4 70% 91 29.97 0.0
01 12:55 N 7 10.00 Fair CLR 84.2 75.2 74% 92 29.97 0.0
01 12:35 N 7 10.00 Fair CLR 84.2 75.2 74% 92 29.99 0.0
01 12:15 NW 3 10.00 Partly Cloudy SCT046 SCT055 82.4 77 84% 91 30 0.0
01 11:55 N 3 10.00 Partly Cloudy SCT040 SCT048 SCT065 82.4 75.2 79% 89 30.01 0.0
01 11:35 N 5 10.00 Partly Cloudy SCT035 SCT048 SCT065 82.4 75.2 79% 89 30.01 0.0
01 11:15 N 5 10.00 Mostly Cloudy SCT035 SCT044 BKN050 82.4 75.2 79% 89 30.01 0.0
01 10:55 N 8 10.00 Partly Cloudy SCT050 84.2 75.2 74% 92 30.01 0.0
01 10:35 NE 8 10.00 Fair CLR 84.2 75.2 74% 92 30 0.0
01 10:15 NE 9 10.00 Fair CLR 84.2 75.2 74% 92 30 0.0
01 09:55 NE 6 10.00 Fair CLR 84.2 75.2 74% 92 30 0.0
01 09:35 N 8 10.00 Fair CLR 82.4 75.2 79% 89 30 0.0
01 09:15 N 7 10.00 Fair CLR 82.4 75.2 79% 89 30 0.0
01 08:55 N 8 10.00 Fair CLR 82.4 75.2 79% 89 30 0.0
01 08:35 N 7 10.00 Fair CLR 80.6 75.2 84% 86 30 0.0
01 08:15 N 6 10.00 Fair CLR 80.6 75.2 84% 86 30 0.0
01 07:55 N 6 10.00 Fair CLR 80.6 75.2 84% 86 29.99 0.0
01 07:35 N 6 10.00 Fair CLR 80.6 75.2 84% 86 29.98 0.0
01 07:15 N 5 10.00 Thunderstorm in Vicinity CLR 80.6 75.2 84% 86 29.97 0.0
01 06:55 N 6 10.00 Fair CLR 78.8 75.2 89% 82 29.97 0.0
01 06:35 N 3 10.00 Fair CLR 78.8 75.2 89% 82 29.97 0.0
01 06:15 N 3 10.00 Fair CLR 78.8 77 94% 83 29.97 0.0
01 05:55 N 3 10.00 Fair CLR 78.8 75.2 89% 82 29.96 0.0
01 05:35 Calm 10.00 Fair CLR 78.8 77 94% 83 29.96 0.0
01 05:15 N 3 10.00 Fair CLR 78.8 77 94% 83 29.96 0.0
01 04:55 Calm 10.00 Fair CLR 78.8 77 94% 83 29.97 0.0
01 04:35 Calm 10.00 Fair CLR 78.8 77 94% 83 29.97 0.0
01 04:15 NE 3 10.00 Fair CLR 80.6 77 89% 87 29.97 0.0
01 03:55 NE 3 10.00 Fair CLR 80.6 77 89% 87 29.97 0.0
01 03:35 NE 5 10.00 Fair CLR 80.6 77 89% 87 29.97 0.0
01 03:15 NE 3 10.00 Fair CLR 80.6 77 89% 87 29.97 0.0
01 02:55 NE 5 10.00 Fair CLR 80.6 77 89% 87 29.97 0.0
01 02:35 NE 3 10.00 Fair CLR 80.6 77 89% 87 29.97 0.0
01 02:15 NE 3 10.00 Fair CLR 80.6 77 89% 87 29.98 0.0
01 01:55 E 5 10.00 Fair CLR 80.6 77 89% 87 29.98 0.0
01 01:35 NE 5 10.00 Fair CLR 80.6 77 89% 87 29.98 0.0
01 01:15 E 5 10.00 Fair CLR 82.4 77 84% 91 29.98 0.0
01 00:55 E 6 10.00 Partly Cloudy SCT025 82.4 77 84% 91 29.99 0.0
01 00:35 E 6 10.00 Fair CLR 80.6 77 89% 87 29.99 0.0
01 00:15 E 3 10.00 Fair CLR 82.4 77 84% 91 29.98 0.0
31 23:55 E 5 10.00 Partly Cloudy SCT027 82.4 77 84% 91 29.98 0.0
31 23:35 E 5 10.00 Fair CLR 80.6 77 89% 87 29.98 0.0
31 23:15 E 3 10.00 Fair CLR 80.6 77 89% 87 29.98 0.0
31 22:55 Calm 10.00 Fair CLR 82.4 75.2 79% 89 29.98 0.0
31 22:35 E 3 10.00 Fair CLR 80.6 77 89% 87 29.98 0.0
31 22:15 Calm 10.00 Partly Cloudy SCT065 82.4 77 84% 91 29.98 0.0
31 21:55 Calm 10.00 Partly Cloudy SCT047 SCT065 80.6 77 89% 87 29.97 0.0
31 21:35 Calm 10.00 Partly Cloudy SCT047 82.4 75.2 79% 89 29.96 0.0
31 21:15 E 3 10.00 Fair CLR 80.6 77 89% 87 29.95 0.0
31 20:55 Calm 10.00 Fair CLR 82.4 75.2 79% 89 29.95 0.0
31 20:35 Calm 10.00 Fair CLR 86 75.2 70% 95 29.94 0.0
31 20:15 W 3 10.00 Fair CLR 86 75.2 70% 95 29.94 0.0
31 19:55 SW 5 10.00 Fair CLR 86 75.2 70% 95 29.94 0.0
31 19:35 SW 5 10.00 Fair CLR 86 75.2 70% 95 29.94 0.0
31 19:15 SW 3 10.00 Fair CLR 87.8 75.2 66% 98 29.94 0.0
31 18:35 S 8 10.00 Fair CLR 87.8 73.4 62% 96 29.94 0.0
31 18:15 SE 7 10.00 Fair CLR 89.6 75.2 63% 100 29.94 0.0
31 17:55 SE 7 10.00 Fair CLR 87.8 75.2 66% 98 29.95 0.0
31 17:35 S 5 10.00 Fair CLR 87.8 77 70% 100 29.95 0.0
31 17:15 S 5 10.00 Fair CLR 87.8 77 70% 100 29.95 0.0
31 16:55 S 7 10.00 Fair CLR 86 77 75% 97 29.96 0.0
31 16:35 SW 6 10.00 Fair CLR 86 75.2 70% 95 29.96 0.0
31 16:15 SW 7 10.00 Fair CLR 87.8 78.8 75% 102 29.97 0.0
31 15:55 SE 6 10.00 Partly Cloudy SCT120 86 77 75% 97 29.98 0.0 0.01
31 15:35 S 3 10.00 Overcast SCT100 OVC120 86 77 75% 97 29.98 0.0 0.01
31 15:15 E 3 10.00 Mostly Cloudy SCT026 SCT044 BKN100 84.2 77 79% 94 29.99 0.0 0.01
31 14:55 SE 8 7.00 Mostly Cloudy with Haze SCT026 SCT033 BKN043 84.2 77 79% 94 30 0.0 0.09
31 14:35 NE 6 5.00 Overcast with Haze SCT026 BKN034 OVC050 82.4 78.8 89% 92 30 0.0 0.09
31 14:15 NE 10 2.50 Mostly Cloudy with Haze SCT029 BKN049 BKN060 84.2 78.8 84% 96 30.01 0.0 0.04
31 13:55 NW 6 10.00 Mostly Cloudy SCT024 SCT036 BKN055 84.2 78.8 84% 96 30.02 0.0 0.11
31 13:35 N 7 1.50 Overcast with Haze SCT029 BKN041 OVC048 82.4 78.8 89% 92 30.02 0.0 0.11
31 13:15 W 5 10.00 Mostly Cloudy SCT012 SCT031 BKN046 84.2 78.8 84% 96 30.03 0.0 0.01
31 12:55 NE 7 1.75 Overcast with Haze SCT014 BKN033 OVC046 86 77 75% 97 30.03 0.0 0.05
31 12:35 E 5 10.00 Overcast BKN042 OVC050 89.6 77 67% 103 30.03 0.0
31 12:15 SE 5 10.00 Mostly Cloudy BKN046 BKN090 BKN120 89.6 77 67% 103 30.03 0.0
31 11:55 E 3 10.00 Partly Cloudy SCT028 SCT040 SCT100 89.6 75.2 63% 100 30.04 0.0
31 11:35 E 5 10.00 Mostly Cloudy BKN028 BKN032 BKN100 87.8 75.2 66% 98 30.03 0.0
31 11:15 NE 5 10.00 Mostly Cloudy BKN024 BKN032 91.4 75.2 59% 103 30.04 0.0
31 10:55 Calm 10.00 Partly Cloudy SCT020 87.8 75.2 66% 98 30.04 0.0
31 10:35 NE 6 10.00 Partly Cloudy SCT020 87.8 77 70% 100 30.04 0.0
31 10:15 NE 6 10.00 Fair CLR 86 77 75% 97 30.04 0.0
31 09:55 N 5 10.00 Partly Cloudy SCT120 84.2 77 79% 94 30.04 0.0
31 09:35 N 3 10.00 Mostly Cloudy BKN110 82.4 77 84% 91 30.03 0.0
31 09:15 NE 3 10.00 Overcast OVC100 82.4 78.8 89% 92 30.03 0.0
31 08:55 NE 3 10.00 Overcast OVC100 82.4 78.8 89% 92 30.03 0.0
31 08:35 NE 5 10.00 Overcast OVC110 78.8 77 94% 83 30.02 0.0
31 08:15 Calm 10.00 Mostly Cloudy BKN110 78.8 77 94% 83 30.02 0.0
31 07:55 W 3 10.00 Partly Cloudy SCT110 77 75.2 94% 78 30 0.0
31 07:35 Calm 10.00 Partly Cloudy SCT110 77 75.2 94% 78 30 0.0
31 07:15 W 3 10.00 Fair CLR 77 75.2 94% 78 29.99 0.0
31 06:55 Calm 10.00 Fair CLR 77 75.2 94% 78 29.99 0.0
31 06:35 N 3 10.00 Fair CLR 77 75.2 94% 78 29.99 0.0
31 06:15 NW 3 10.00 Fair CLR 77 75.2 94% 78 29.98 0.0
31 05:55 Calm 10.00 Fair CLR 77 75.2 94% 78 29.98 0.0
31 05:35 Calm 10.00 Fair CLR 77 75.2 94% 78 29.99 0.0
31 05:15 Calm 10.00 Fair CLR 77 75.2 94% 78 29.98 0.0
31 04:55 Calm 10.00 Fair CLR 77 75.2 94% 78 29.98 0.0
31 04:35 Calm 10.00 Fair CLR 77 75.2 94% 78 29.98 0.0
31 04:15 Calm 10.00 Fair CLR 77 75.2 94% 78 29.98 0.0
31 03:55 Calm 10.00 Fair CLR 77 75.2 94% 78 29.98 0.0
31 03:35 Calm 10.00 Fair CLR 77 75.2 94% 78 29.98 0.0
31 03:15 Calm 10.00 Fair CLR 78.8 75.2 89% 82 29.99 0.0
31 02:55 NW 3 10.00 Fair CLR 78.8 75.2 89% 82 29.99 0.0
31 02:35 SW 3 10.00 Fair CLR 78.8 75.2 89% 82 29.99 0.0
31 02:15 S 5 10.00 Fair CLR 80.6 75.2 84% 86 29.99 0.0
31 01:55 SW 3 10.00 Fair CLR 80.6 75.2 84% 86 29.99 0.0
31 01:35 SW 5 10.00 Fair CLR 80.6 75.2 84% 86 30 0.0
31 01:15 SW 5 10.00 Fair CLR 80.6 75.2 84% 86 30 0.0
31 00:55 SW 5 10.00 Fair CLR 82.4 75.2 79% 89 30 0.0
31 00:35 SW 7 10.00 Fair CLR 82.4 75.2 79% 89 30 0.0
31 00:15 S 6 10.00 Fair CLR 82.4 75.2 79% 89 30 0.0
30 23:55 S 6 10.00 Fair CLR 82.4 75.2 79% 89 29.99 0.0
30 23:35 S 6 10.00 Fair CLR 82.4 75.2 79% 89 29.99 0.0
30 23:15 SW 7 10.00 Fair CLR 82.4 75.2 79% 89 29.99 0.0
30 22:55 S 6 10.00 Fair CLR 84.2 75.2 74% 92 29.98 0.0
30 22:35 S 6 10.00 Fair CLR 84.2 75.2 74% 92 29.98 0.0
30 22:15 S 7 10.00 Fair CLR 84.2 73.4 70% 91 29.98 0.0
30 21:55 S 7 10.00 Fair CLR 84.2 73.4 70% 91 29.97 0.0
30 21:35 S 6 10.00 Fair CLR 84.2 73.4 70% 91 29.97 0.0
30 21:15 SW 7 10.00 Fair CLR 84.2 73.4 70% 91 29.96 0.0
30 20:55 S 8 10.00 Fair CLR 86 73.4 66% 93 29.95 0.0
30 20:35 S 9 10.00 Fair CLR 86 71.6 62% 92 29.95 0.0
30 20:15 S 10 10.00 Fair CLR 87.8 71.6 59% 94 29.94 0.0
30 19:55 S 8 10.00 Fair CLR 87.8 73.4 62% 96 29.95 0.0
30 19:35 SE 9 10.00 Fair CLR 87.8 71.6 59% 94 29.94 0.0
30 19:15 SE 10 10.00 Fair CLR 89.6 71.6 55% 96 29.94 0.0
30 18:55 SE 14 10.00 Fair CLR 89.6 71.6 55% 96 29.94 0.0
30 18:35 SE 14 10.00 Fair CLR 89.6 71.6 55% 96 29.94 0.0
30 18:15 SE 13 10.00 Fair CLR 91.4 73.4 56% 100 29.94 0.0
30 17:55 SE 13 10.00 Fair CLR 91.4 71.6 52% 99 29.94 0.0
30 17:35 SE 12 10.00 Fair CLR 93.2 71.6 50% 101 29.94 0.0
30 17:15 SE 14 10.00 Fair CLR 93.2 71.6 50% 101 29.94 0.0
30 16:55 SE 13 10.00 Fair CLR 93.2 71.6 50% 101 29.94 0.0
30 16:35 SE 13 10.00 Fair CLR 93.2 73.4 53% 103 29.95 0.0
30 16:15 SE 14 10.00 Fair CLR 93.2 73.4 53% 103 29.95 0.0
30 15:55 SE 15 10.00 Fair CLR 93.2 73.4 53% 103 29.96 0.0
30 15:35 E 13 10.00 Fair CLR 95 73.4 50% 105 29.96 0.0
30 15:15 SE 13 10.00 Fair CLR 95 73.4 50% 105 29.97 0.0
30 14:55 SE 9 10.00 Fair CLR 95 73.4 50% 105 29.98 0.0
30 14:35 E 12 7.00 Fair CLR 95 73.4 50% 105 29.99 0.0
30 14:15 E 10 10.00 Fair CLR 95 73.4 50% 105 29.99 0.0
30 13:55 SE 7 10.00 Fair CLR 93.2 73.4 53% 103 30.01 0.0
30 13:35 E 8 10.00 Fair CLR 93.2 73.4 53% 103 30.01 0.0
30 13:15 SE 8 10.00 Partly Cloudy SCT046 93.2 73.4 53% 103 30.02 0.0
30 12:55 SW 6 10.00 Partly Cloudy SCT046 93.2 71.6 50% 101 30.03 0.0
30 12:35 W 7 10.00 Partly Cloudy SCT044 93.2 71.6 50% 101 30.04 0.0
30 12:15 W 5 10.00 Partly Cloudy SCT044 91.4 71.6 52% 99 30.04 0.0
30 11:55 SE 3 10.00 Fair CLR 91.4 71.6 52% 99 30.04 0.0
30 11:35 SW 3 10.00 Fair CLR 91.4 71.6 52% 99 30.04 0.0
30 11:15 Calm 10.00 Fair CLR 89.6 73.4 59% 98 30.05 0.0
30 10:55 Calm 10.00 Fair CLR 87.8 73.4 62% 96 30.05 0.0
30 10:35 SW 5 10.00 Fair CLR 87.8 75.2 66% 98 30.05 0.0
30 10:15 N 3 10.00 Fair CLR 87.8 75.2 66% 98 30.05 0.0
30 09:55 W 7 10.00 Partly Cloudy SCT022 86 75.2 70% 95 30.05 0.0
30 09:35 SW 3 10.00 Partly Cloudy SCT022 86 75.2 70% 95 30.05 0.0
30 09:15 W 5 10.00 Partly Cloudy SCT020 84.2 77 79% 94 30.05 0.0
30 08:55 W 3 10.00 Fair CLR 84.2 77 79% 94 30.05 0.0
30 08:35 NW 3 10.00 Fair CLR 82.4 77 84% 91 30.04 0.0
30 08:15 W 3 10.00 Fair CLR 80.6 77 89% 87 30.04 0.0
30 07:55 NW 3 10.00 Fair CLR 77 77 100% 78 30.03 0.0
30 07:35 Calm 10.00 Fair CLR 75.2 73.4 94% 74 30.02 0.0
30 07:15 Calm 10.00 Fair CLR 75.2 73.4 94% 74 30.02 0.0
30 06:55 Calm 10.00 Partly Cloudy SCT021 75.2 73.4 94% 74 30.02 0.0
30 06:35 Calm 10.00 Partly Cloudy SCT021 75.2 73.4 94% 74 30.02 0.0
30 06:15 Calm 7.00 Fog/Mist CLR 75.2 75.2 100% 73 30.02 0.0
30 05:55 Calm 10.00 Fair CLR 75.2 75.2 100% 73 30.01 0.0
30 05:35 Calm 10.00 Fair CLR 75.2 75.2 100% 73 30.01 0.0
30 05:15 Calm 10.00 Fair CLR 75.2 75.2 100% 73 30.01 0.0
30 04:55 Calm 10.00 Fair CLR 75.2 75.2 100% 73 30 0.0
30 04:35 Calm 10.00 Fair CLR 75.2 73.4 94% 74 30 0.0
30 04:15 Calm 10.00 Fair CLR 77 73.4 89% 78 30 0.0
30 03:55 Calm 10.00 Fair CLR 77 75.2 94% 78 30 0.0
30 03:35 Calm 10.00 Fair CLR 77 75.2 94% 78 30 0.0
30 03:15 Calm 10.00 Fair CLR 77 75.2 94% 78 30.01 0.0
30 02:55 Calm 10.00 Fair CLR 77 75.2 94% 78 30.01 0.0
30 02:35 Calm 7.00 Fair CLR 77 75.2 94% 78 30.01 0.0
30 02:15 W 3 10.00 Fair CLR 77 75.2 94% 78 30.01 0.0
30 01:55 Calm 10.00 Fair CLR 78.8 75.2 89% 82 30.01 0.0
30 01:35 W 3 10.00 Fair CLR 78.8 75.2 89% 82 30.01 0.0
30 01:15 SW 6 10.00 Fair CLR 80.6 75.2 84% 86 30.01 0.0
30 00:55 SW 6 10.00 Fair CLR 80.6 75.2 84% 86 30.01 0.0
30 00:35 SW 6 10.00 Fair CLR 80.6 75.2 84% 86 30.01 0.0
30 00:15 SW 6 10.00 Fair CLR 80.6 75.2 84% 86 30.01 0.0
29 23:55 SW 8 10.00 Fair CLR 82.4 77 84% 91 30.01 0.0
29 23:35 SW 7 10.00 Fair CLR 82.4 77 84% 91 30.01 0.0
29 23:15 S 6 10.00 Fair CLR 82.4 77 84% 91 30.01 0.0
29 22:55 S 6 10.00 Fair CLR 82.4 77 84% 91 30.01 0.0
29 22:35 S 6 10.00 Fair CLR 82.4 77 84% 91 30.01 0.0
29 22:15 S 7 10.00 Fair CLR 84.2 77 79% 94 30.01 0.0
29 21:55 SW 8 10.00 Fair CLR 84.2 77 79% 94 30 0.0
29 21:35 S 8 10.00 Fair CLR 84.2 75.2 74% 92 30 0.0
29 21:15 S 7 10.00 Fair CLR 84.2 75.2 74% 92 29.99 0.0
29 20:55 S 9 10.00 Fair CLR 84.2 75.2 74% 92 29.99 0.0
29 20:35 S 9 10.00 Fair CLR 84.2 75.2 74% 92 29.98 0.0
29 20:15 S 8 10.00 Fair CLR 86 75.2 70% 95 29.97 0.0
29 19:55 S 9 10.00 Fair CLR 86 75.2 70% 95 29.97 0.0
29 19:35 S 9 10.00 Fair CLR 87.8 75.2 66% 98 29.97 0.0
29 19:15 S 10 10.00 Fair CLR 89.6 73.4 59% 98 29.97 0.0
29 18:55 S 9 10.00 Fair CLR 91.4 73.4 56% 100 29.97 0.0
29 18:35 SE 13 10.00 Fair CLR 91.4 73.4 56% 100 29.97 0.0
29 18:15 SE 13 10.00 Fair CLR 91.4 75.2 59% 103 29.97 0.0
29 17:55 SE 13 10.00 Fair CLR 91.4 73.4 56% 100 29.97 0.0
29 17:35 SE 12 7.00 Fair CLR 93.2 71.6 50% 101 29.97 0.0
29 17:15 SE 12 10.00 Fair CLR 93.2 73.4 53% 103 29.97 0.0
29 16:55 SE 12 10.00 Fair CLR 93.2 73.4 53% 103 29.98 0.0
29 16:35 SE 9 10.00 Fair CLR 93.2 73.4 53% 103 29.98 0.0
Date Time (cdt) Wind (mph) Vis. (mi.) Weather Sky Cond. Air Dwpt Max. Min. Relative Humidity Wind Chill (°F) Heat Index (°F) altimeter (in) sea level (mb) 1 hr 3 hr 6 hr
6 hour
Temperature (ºF) Pressure Precipitation (in)